sensor_id;sensor_type;location;lat;lon;timestamp;pressure;altitude;pressure_sealevel;temperature;humidity
59289;BME280;45056;47.602;9.886;2022-08-19T00:00:01;92640.66;;;18.78;69.55
59289;BME280;45056;47.602;9.886;2022-08-19T00:02:30;92652.41;;;18.79;69.77
59289;BME280;45056;47.602;9.886;2022-08-19T00:04:59;92663.69;;;18.81;69.54
59289;BME280;45056;47.602;9.886;2022-08-19T00:07:27;92665.94;;;18.82;69.62
59289;BME280;45056;47.602;9.886;2022-08-19T00:09:55;92661.16;;;18.83;69.65
59289;BME280;45056;47.602;9.886;2022-08-19T00:12:23;92648.66;;;18.82;69.58
59289;BME280;45056;47.602;9.886;2022-08-19T00:14:51;92652.66;;;18.81;69.79
59289;BME280;45056;47.602;9.886;2022-08-19T00:17:21;92644.13;;;18.79;69.90
59289;BME280;45056;47.602;9.886;2022-08-19T00:19:50;92642.63;;;18.78;69.65
59289;BME280;45056;47.602;9.886;2022-08-19T00:22:18;92645.16;;;18.75;69.73
59289;BME280;45056;47.602;9.886;2022-08-19T00:24:46;92641.41;;;18.73;69.77
59289;BME280;45056;47.602;9.886;2022-08-19T00:27:14;92646.66;;;18.71;70.05
59289;BME280;45056;47.602;9.886;2022-08-19T00:29:42;92644.16;;;18.67;70.25
59289;BME280;45056;47.602;9.886;2022-08-19T00:32:10;92641.41;;;18.67;70.56
59289;BME280;45056;47.602;9.886;2022-08-19T00:34:39;92641.41;;;18.67;70.49
59289;BME280;45056;47.602;9.886;2022-08-19T00:37:09;92640.63;;;18.67;70.69
59289;BME280;45056;47.602;9.886;2022-08-19T00:39:37;92636.38;;;18.66;70.91
59289;BME280;45056;47.602;9.886;2022-08-19T00:42:05;92634.88;;;18.65;70.95
59289;BME280;45056;47.602;9.886;2022-08-19T00:44:33;92642.91;;;18.63;70.89
59289;BME280;45056;47.602;9.886;2022-08-19T00:47:02;92640.13;;;18.63;70.90
59289;BME280;45056;47.602;9.886;2022-08-19T00:49:35;92640.13;;;18.63;71.27
59289;BME280;45056;47.602;9.886;2022-08-19T00:52:12;92637.38;;;18.63;71.29
59289;BME280;45056;47.602;9.886;2022-08-19T00:54:44;92630.38;;;18.62;71.09
59289;BME280;45056;47.602;9.886;2022-08-19T00:57:18;92638.38;;;18.59;71.18
59289;BME280;45056;47.602;9.886;2022-08-19T00:59:57;92627.13;;;18.57;71.10
59289;BME280;45056;47.602;9.886;2022-08-19T01:02:27;92621.84;;;18.54;71.26
59289;BME280;45056;47.602;9.886;2022-08-19T01:04:57;92619.09;;;18.54;71.23
59289;BME280;45056;47.602;9.886;2022-08-19T01:07:29;92605.84;;;18.52;71.25
59289;BME280;45056;47.602;9.886;2022-08-19T01:09:57;92602.06;;;18.50;71.18
59289;BME280;45056;47.602;9.886;2022-08-19T01:12:25;92605.34;;;18.48;71.25
59289;BME280;45056;47.602;9.886;2022-08-19T01:14:54;92586.56;;;18.46;71.43
59289;BME280;45056;47.602;9.886;2022-08-19T01:17:23;92594.09;;;18.46;71.31
59289;BME280;45056;47.602;9.886;2022-08-19T01:19:51;92589.81;;;18.45;71.56
59289;BME280;45056;47.602;9.886;2022-08-19T01:22:27;92594.31;;;18.42;71.39
59289;BME280;45056;47.602;9.886;2022-08-19T01:25:00;92600.34;;;18.41;71.64
59289;BME280;45056;47.602;9.886;2022-08-19T01:27:37;92598.09;;;18.39;71.51
59289;BME280;45056;47.602;9.886;2022-08-19T01:30:08;92598.56;;;18.38;71.65
59289;BME280;45056;47.602;9.886;2022-08-19T01:32:37;92598.31;;;18.36;71.72
59289;BME280;45056;47.602;9.886;2022-08-19T01:35:06;92607.84;;;18.35;71.76
59289;BME280;45056;47.602;9.886;2022-08-19T01:37:44;92615.84;;;18.33;71.75
59289;BME280;45056;47.602;9.886;2022-08-19T01:40:13;92601.81;;;18.30;71.68
59289;BME280;45056;47.602;9.886;2022-08-19T01:42:42;92617.63;;;18.30;71.90
59289;BME280;45056;47.602;9.886;2022-08-19T01:45:10;92620.84;;;18.28;72.13
59289;BME280;45056;47.602;9.886;2022-08-19T01:47:39;92614.09;;;18.29;72.09
59289;BME280;45056;47.602;9.886;2022-08-19T01:50:09;92605.09;;;18.29;71.82
59289;BME280;45056;47.602;9.886;2022-08-19T01:52:42;92601.81;;;18.30;71.96
59289;BME280;45056;47.602;9.886;2022-08-19T01:55:14;92586.56;;;18.29;72.10
59289;BME280;45056;47.602;9.886;2022-08-19T01:57:50;92579.06;;;18.30;72.05
59289;BME280;45056;47.602;9.886;2022-08-19T02:00:24;92577.03;;;18.30;72.17
59289;BME280;45056;47.602;9.886;2022-08-19T02:02:55;92573.56;;;18.30;72.35
59289;BME280;45056;47.602;9.886;2022-08-19T02:05:23;92575.78;;;18.31;72.21
59289;BME280;45056;47.602;9.886;2022-08-19T02:07:53;92575.78;;;18.31;72.15
59289;BME280;45056;47.602;9.886;2022-08-19T02:10:22;92580.81;;;18.33;72.21
59289;BME280;45056;47.602;9.886;2022-08-19T02:12:51;92580.03;;;18.33;72.08
59289;BME280;45056;47.602;9.886;2022-08-19T02:15:20;92570.53;;;18.34;72.20
59289;BME280;45056;47.602;9.886;2022-08-19T02:17:49;92576.03;;;18.34;72.19
59289;BME280;45056;47.602;9.886;2022-08-19T02:20:17;92572.56;;;18.33;72.28
59289;BME280;45056;47.602;9.886;2022-08-19T02:22:45;92565.03;;;18.34;72.53
59289;BME280;45056;47.602;9.886;2022-08-19T02:25:15;92569.03;;;18.33;72.56
59289;BME280;45056;47.602;9.886;2022-08-19T02:27:43;92569.03;;;18.33;72.61
59289;BME280;45056;47.602;9.886;2022-08-19T02:30:14;92570.28;;;18.31;72.69
59289;BME280;45056;47.602;9.886;2022-08-19T02:32:43;92572.78;;;18.29;72.59
59289;BME280;45056;47.602;9.886;2022-08-19T02:35:12;92575.28;;;18.27;72.75
59289;BME280;45056;47.602;9.886;2022-08-19T02:37:42;92572.28;;;18.25;72.87
59289;BME280;45056;47.602;9.886;2022-08-19T02:40:30;92571.53;;;18.19;72.88
59289;BME280;45056;47.602;9.886;2022-08-19T02:43:00;92577.03;;;18.13;73.15
59289;BME280;45056;47.602;9.886;2022-08-19T02:45:31;92572.53;;;18.10;73.40
59289;BME280;45056;47.602;9.886;2022-08-19T02:48:01;92566.78;;;18.08;73.58
59289;BME280;45056;47.602;9.886;2022-08-19T02:50:29;92561.50;;;18.05;73.69
59289;BME280;45056;47.602;9.886;2022-08-19T02:52:58;92562.75;;;18.03;73.88
59289;BME280;45056;47.602;9.886;2022-08-19T02:55:26;92561.78;;;18.01;73.82
59289;BME280;45056;47.602;9.886;2022-08-19T02:57:56;92565.25;;;18.01;73.94
59289;BME280;45056;47.602;9.886;2022-08-19T03:00:24;92551.75;;;18.03;73.95
59289;BME280;45056;47.602;9.886;2022-08-19T03:02:52;92565.03;;;18.05;73.77
59289;BME280;45056;47.602;9.886;2022-08-19T03:05:21;92571.03;;;18.09;73.59
59289;BME280;45056;47.602;9.886;2022-08-19T03:07:49;92573.31;;;18.11;73.49
59289;BME280;45056;47.602;9.886;2022-08-19T03:10:17;92563.03;;;18.11;73.60
59289;BME280;45056;47.602;9.886;2022-08-19T03:12:45;92566.28;;;18.10;73.24
59289;BME280;45056;47.602;9.886;2022-08-19T03:15:14;92566.00;;;18.08;73.26
59289;BME280;45056;47.602;9.886;2022-08-19T03:17:42;92569.78;;;18.05;73.14
59289;BME280;45056;47.602;9.886;2022-08-19T03:20:10;92565.50;;;18.03;72.98
59289;BME280;45056;47.602;9.886;2022-08-19T03:22:38;92566.25;;;17.98;73.05
59289;BME280;45056;47.602;9.886;2022-08-19T03:25:07;92568.50;;;17.94;73.17
59289;BME280;45056;47.602;9.886;2022-08-19T03:27:35;92566.75;;;17.91;73.43
59289;BME280;45056;47.602;9.886;2022-08-19T03:30:04;92569.25;;;17.89;73.54
59289;BME280;45056;47.602;9.886;2022-08-19T03:32:34;92567.47;;;17.86;73.61
59289;BME280;45056;47.602;9.886;2022-08-19T03:35:03;92571.50;;;17.85;73.46
59289;BME280;45056;47.602;9.886;2022-08-19T03:37:32;92570.47;;;17.82;73.48
59289;BME280;45056;47.602;9.886;2022-08-19T03:40:01;92561.97;;;17.80;73.76
59289;BME280;45056;47.602;9.886;2022-08-19T03:42:30;92567.47;;;17.80;73.50
59289;BME280;45056;47.602;9.886;2022-08-19T03:44:58;92563.97;;;17.80;73.67
59289;BME280;45056;47.602;9.886;2022-08-19T03:47:26;92561.97;;;17.80;73.63
59289;BME280;45056;47.602;9.886;2022-08-19T03:49:55;92560.72;;;17.81;73.64
59289;BME280;45056;47.602;9.886;2022-08-19T03:52:24;92552.47;;;17.81;73.49
59289;BME280;45056;47.602;9.886;2022-08-19T03:54:52;92558.72;;;17.82;73.31
59289;BME280;45056;47.602;9.886;2022-08-19T03:57:20;92556.22;;;17.84;73.18
59289;BME280;45056;47.602;9.886;2022-08-19T03:59:48;92545.97;;;17.84;73.22
59289;BME280;45056;47.602;9.886;2022-08-19T04:02:16;92547.97;;;17.84;73.15
59289;BME280;45056;47.602;9.886;2022-08-19T04:04:44;92549.97;;;17.83;73.21
59289;BME280;45056;47.602;9.886;2022-08-19T04:07:14;92547.72;;;17.82;73.31
59289;BME280;45056;47.602;9.886;2022-08-19T04:09:48;92543.94;;;17.79;73.55
59289;BME280;45056;47.602;9.886;2022-08-19T04:12:18;92535.44;;;17.77;73.61
59289;BME280;45056;47.602;9.886;2022-08-19T04:14:47;92526.44;;;17.77;73.52
59289;BME280;45056;47.602;9.886;2022-08-19T04:17:15;92533.19;;;17.76;73.76
59289;BME280;45056;47.602;9.886;2022-08-19T04:19:43;92540.69;;;17.75;73.80
59289;BME280;45056;47.602;9.886;2022-08-19T04:22:11;92553.94;;;17.77;73.53
59289;BME280;45056;47.602;9.886;2022-08-19T04:24:40;92552.69;;;17.78;73.34
59289;BME280;45056;47.602;9.886;2022-08-19T04:27:08;92562.72;;;17.81;73.39
59289;BME280;45056;47.602;9.886;2022-08-19T04:29:37;92574.47;;;17.81;73.52
59289;BME280;45056;47.602;9.886;2022-08-19T04:32:06;92598.75;;;17.83;73.71
59289;BME280;45056;47.602;9.886;2022-08-19T04:34:34;92594.75;;;17.84;73.55
59289;BME280;45056;47.602;9.886;2022-08-19T04:37:06;92591.47;;;17.85;73.59
59289;BME280;45056;47.602;9.886;2022-08-19T04:39:38;92588.97;;;17.87;73.36
59289;BME280;45056;47.602;9.886;2022-08-19T04:42:25;92591.25;;;17.89;73.26
59289;BME280;45056;47.602;9.886;2022-08-19T04:45:09;92602.25;;;17.89;73.36
59289;BME280;45056;47.602;9.886;2022-08-19T04:47:42;92600.25;;;17.89;73.17
59289;BME280;45056;47.602;9.886;2022-08-19T04:50:11;92600.50;;;17.92;73.13
59289;BME280;45056;47.602;9.886;2022-08-19T04:52:39;92606.00;;;17.92;72.96
59289;BME280;45056;47.602;9.886;2022-08-19T04:55:09;92617.00;;;17.92;72.96
59289;BME280;45056;47.602;9.886;2022-08-19T04:57:39;92616.28;;;17.91;72.90
59289;BME280;45056;47.602;9.886;2022-08-19T05:00:09;92611.75;;;17.94;72.82
59289;BME280;45056;47.602;9.886;2022-08-19T05:02:38;92602.28;;;17.95;72.68
59289;BME280;45056;47.602;9.886;2022-08-19T05:05:07;92609.28;;;17.96;72.49
59289;BME280;45056;47.602;9.886;2022-08-19T05:07:36;92612.03;;;17.96;72.54
59289;BME280;45056;47.602;9.886;2022-08-19T05:10:06;92614.03;;;17.95;72.63
59289;BME280;45056;47.602;9.886;2022-08-19T05:12:34;92609.78;;;17.94;72.50
59289;BME280;45056;47.602;9.886;2022-08-19T05:15:06;92613.00;;;17.93;72.76
59289;BME280;45056;47.602;9.886;2022-08-19T05:17:35;92621.25;;;17.93;72.79
59289;BME280;45056;47.602;9.886;2022-08-19T05:20:05;92622.50;;;17.92;72.55
59289;BME280;45056;47.602;9.886;2022-08-19T05:22:52;92633.53;;;17.92;72.70
59289;BME280;45056;47.602;9.886;2022-08-19T05:25:21;92625.53;;;17.94;72.50
59289;BME280;45056;47.602;9.886;2022-08-19T05:27:51;92629.28;;;17.96;72.42
59289;BME280;45056;47.602;9.886;2022-08-19T05:30:21;92633.06;;;17.99;72.64
59289;BME280;45056;47.602;9.886;2022-08-19T05:32:49;92626.31;;;18.00;72.43
59289;BME280;45056;47.602;9.886;2022-08-19T05:35:17;92625.09;;;18.01;72.37
59289;BME280;45056;47.602;9.886;2022-08-19T05:37:45;92614.81;;;18.01;72.47
59289;BME280;45056;47.602;9.886;2022-08-19T05:40:13;92622.34;;;18.01;72.23
59289;BME280;45056;47.602;9.886;2022-08-19T05:42:41;92631.81;;;18.00;72.61
59289;BME280;45056;47.602;9.886;2022-08-19T05:45:09;92630.31;;;17.99;72.53
59289;BME280;45056;47.602;9.886;2022-08-19T05:47:39;92630.31;;;17.99;72.42
59289;BME280;45056;47.602;9.886;2022-08-19T05:50:08;92629.78;;;18.00;72.20
59289;BME280;45056;47.602;9.886;2022-08-19T05:52:36;92627.03;;;18.00;72.46
59289;BME280;45056;47.602;9.886;2022-08-19T05:55:06;92624.28;;;18.00;72.25
59289;BME280;45056;47.602;9.886;2022-08-19T05:57:34;92614.31;;;18.03;72.50
59289;BME280;45056;47.602;9.886;2022-08-19T06:00:04;92613.81;;;18.05;72.31
59289;BME280;45056;47.602;9.886;2022-08-19T06:02:36;92610.56;;;18.06;72.46
59289;BME280;45056;47.602;9.886;2022-08-19T06:05:07;92610.06;;;18.08;72.36
59289;BME280;45056;47.602;9.886;2022-08-19T06:07:36;92606.06;;;18.09;72.33
59289;BME280;45056;47.602;9.886;2022-08-19T06:10:07;92609.56;;;18.09;72.47
59289;BME280;45056;47.602;9.886;2022-08-19T06:12:39;92617.59;;;18.07;72.12
59289;BME280;45056;47.602;9.886;2022-08-19T06:15:10;92615.56;;;18.08;72.45
59289;BME280;45056;47.602;9.886;2022-08-19T06:17:41;92616.81;;;18.07;72.66
59289;BME280;45056;47.602;9.886;2022-08-19T06:20:14;92606.56;;;18.07;72.58
59289;BME280;45056;47.602;9.886;2022-08-19T06:22:47;92612.06;;;18.07;72.84
59289;BME280;45056;47.602;9.886;2022-08-19T06:25:17;92604.56;;;18.08;72.74
59289;BME280;45056;47.602;9.886;2022-08-19T06:27:46;92605.81;;;18.07;72.55
59289;BME280;45056;47.602;9.886;2022-08-19T06:30:14;92616.59;;;18.10;72.40
59289;BME280;45056;47.602;9.886;2022-08-19T06:32:42;92613.34;;;18.12;72.47
59289;BME280;45056;47.602;9.886;2022-08-19T06:35:11;92623.59;;;18.11;72.66
59289;BME280;45056;47.602;9.886;2022-08-19T06:37:41;92618.84;;;18.12;72.76
59289;BME280;45056;47.602;9.886;2022-08-19T06:40:10;92620.84;;;18.11;72.86
59289;BME280;45056;47.602;9.886;2022-08-19T06:42:39;92627.09;;;18.12;72.76
59289;BME280;45056;47.602;9.886;2022-08-19T06:45:08;92627.09;;;18.12;72.70
59289;BME280;45056;47.602;9.886;2022-08-19T06:47:36;92624.59;;;18.14;72.82
59289;BME280;45056;47.602;9.886;2022-08-19T06:50:05;92630.38;;;18.16;72.74
59289;BME280;45056;47.602;9.886;2022-08-19T06:52:35;92625.59;;;18.16;72.96
59289;BME280;45056;47.602;9.886;2022-08-19T06:55:04;92631.34;;;18.19;72.74
59289;BME280;45056;47.602;9.886;2022-08-19T06:57:33;92629.63;;;18.21;72.82
59289;BME280;45056;47.602;9.886;2022-08-19T07:00:03;92630.09;;;18.20;72.78
59289;BME280;45056;47.602;9.886;2022-08-19T07:02:33;92629.38;;;18.19;72.87
59289;BME280;45056;47.602;9.886;2022-08-19T07:05:05;92630.09;;;18.20;72.86
59289;BME280;45056;47.602;9.886;2022-08-19T07:07:35;92628.13;;;18.20;72.62
59289;BME280;45056;47.602;9.886;2022-08-19T07:10:04;92632.38;;;18.21;72.61
59289;BME280;45056;47.602;9.886;2022-08-19T07:12:33;92642.13;;;18.22;72.68
59289;BME280;45056;47.602;9.886;2022-08-19T07:15:01;92643.63;;;18.23;72.56
59289;BME280;45056;47.602;9.886;2022-08-19T07:17:31;92644.38;;;18.24;72.51
59289;BME280;45056;47.602;9.886;2022-08-19T07:20:01;92648.63;;;18.25;72.52
59289;BME280;45056;47.602;9.886;2022-08-19T07:22:29;92647.41;;;18.26;72.49
59289;BME280;45056;47.602;9.886;2022-08-19T07:25:00;92649.38;;;18.25;72.48
59289;BME280;45056;47.602;9.886;2022-08-19T07:27:30;92641.91;;;18.26;72.46
59289;BME280;45056;47.602;9.886;2022-08-19T07:29:58;92644.66;;;18.26;72.25
59289;BME280;45056;47.602;9.886;2022-08-19T07:32:26;92638.38;;;18.25;72.52
59289;BME280;45056;47.602;9.886;2022-08-19T07:34:55;92641.38;;;18.27;72.56
59289;BME280;45056;47.602;9.886;2022-08-19T07:37:24;92641.38;;;18.27;72.37
59289;BME280;45056;47.602;9.886;2022-08-19T07:39:53;92633.38;;;18.29;72.60
59289;BME280;45056;47.602;9.886;2022-08-19T07:42:22;92634.13;;;18.30;72.63
59289;BME280;45056;47.602;9.886;2022-08-19T07:44:50;92634.13;;;18.30;72.48
59289;BME280;45056;47.602;9.886;2022-08-19T07:47:18;92630.63;;;18.29;72.57
59289;BME280;45056;47.602;9.886;2022-08-19T07:49:46;92636.13;;;18.29;72.57
59289;BME280;45056;47.602;9.886;2022-08-19T07:52:15;92638.88;;;18.29;72.77
59289;BME280;45056;47.602;9.886;2022-08-19T07:54:43;92644.38;;;18.29;72.56
59289;BME280;45056;47.602;9.886;2022-08-19T07:57:11;92649.16;;;18.29;72.52
59289;BME280;45056;47.602;9.886;2022-08-19T07:59:41;92649.16;;;18.29;72.74
59289;BME280;45056;47.602;9.886;2022-08-19T08:02:09;92648.38;;;18.28;72.69
59289;BME280;45056;47.602;9.886;2022-08-19T08:04:37;92645.16;;;18.30;72.47
59289;BME280;45056;47.602;9.886;2022-08-19T08:07:25;92643.66;;;18.29;72.44
59289;BME280;45056;47.602;9.886;2022-08-19T08:10:10;92646.63;;;18.25;72.14
59289;BME280;45056;47.602;9.886;2022-08-19T08:12:40;92653.41;;;18.24;72.20
59289;BME280;45056;47.602;9.886;2022-08-19T08:15:12;92651.91;;;18.23;72.30
59289;BME280;45056;47.602;9.886;2022-08-19T08:17:45;92653.88;;;18.23;72.26
59289;BME280;45056;47.602;9.886;2022-08-19T08:20:14;92664.66;;;18.26;72.23
59289;BME280;45056;47.602;9.886;2022-08-19T08:22:43;92659.41;;;18.28;72.00
59289;BME280;45056;47.602;9.886;2022-08-19T08:25:30;92662.94;;;18.29;71.98
59289;BME280;45056;47.602;9.886;2022-08-19T08:27:58;92664.91;;;18.28;71.85
59289;BME280;45056;47.602;9.886;2022-08-19T08:30:29;92664.91;;;18.28;71.85
59289;BME280;45056;47.602;9.886;2022-08-19T08:32:59;92659.41;;;18.28;71.77
59289;BME280;45056;47.602;9.886;2022-08-19T08:35:27;92666.41;;;18.29;71.94
59289;BME280;45056;47.602;9.886;2022-08-19T08:37:55;92660.16;;;18.29;71.82
59289;BME280;45056;47.602;9.886;2022-08-19T08:40:29;92658.91;;;18.30;71.89
59289;BME280;45056;47.602;9.886;2022-08-19T08:43:06;92669.94;;;18.30;72.02
59289;BME280;45056;47.602;9.886;2022-08-19T08:45:56;92682.94;;;18.29;71.96
59289;BME280;45056;47.602;9.886;2022-08-19T08:48:44;92680.44;;;18.31;72.12
59289;BME280;45056;47.602;9.886;2022-08-19T08:51:21;92690.19;;;18.33;72.10
59289;BME280;45056;47.602;9.886;2022-08-19T08:53:55;92700.97;;;18.36;72.04
59289;BME280;45056;47.602;9.886;2022-08-19T08:56:23;92694.22;;;18.37;71.97
59289;BME280;45056;47.602;9.886;2022-08-19T08:58:59;92694.97;;;18.38;72.16
59289;BME280;45056;47.602;9.886;2022-08-19T09:01:34;92699.22;;;18.39;71.90
59289;BME280;45056;47.602;9.886;2022-08-19T09:04:04;92690.47;;;18.40;72.12
59289;BME280;45056;47.602;9.886;2022-08-19T09:06:40;92697.25;;;18.45;72.03
59289;BME280;45056;47.602;9.886;2022-08-19T09:09:20;92693.50;;;18.48;71.93
59289;BME280;45056;47.602;9.886;2022-08-19T09:12:05;92692.25;;;18.49;72.05
59289;BME280;45056;47.602;9.886;2022-08-19T09:14:50;92692.97;;;18.50;72.04
59289;BME280;45056;47.602;9.886;2022-08-19T09:17:26;92699.25;;;18.50;71.89
59289;BME280;45056;47.602;9.886;2022-08-19T09:20:04;92704.75;;;18.50;71.94
59289;BME280;45056;47.602;9.886;2022-08-19T09:22:36;92699.25;;;18.50;71.93
59289;BME280;45056;47.602;9.886;2022-08-19T09:25:08;92709.25;;;18.48;71.95
59289;BME280;45056;47.602;9.886;2022-08-19T09:27:40;92711.75;;;18.45;71.84
59289;BME280;45056;47.602;9.886;2022-08-19T09:30:15;92711.25;;;18.41;71.97
59289;BME280;45056;47.602;9.886;2022-08-19T09:32:46;92712.50;;;18.40;72.08
59289;BME280;45056;47.602;9.886;2022-08-19T09:35:15;92718.50;;;18.39;72.06
59289;BME280;45056;47.602;9.886;2022-08-19T09:37:43;92725.75;;;18.36;71.94
59289;BME280;45056;47.602;9.886;2022-08-19T09:40:11;92726.25;;;18.35;72.08
59289;BME280;45056;47.602;9.886;2022-08-19T09:42:39;92719.75;;;18.32;72.13
59289;BME280;45056;47.602;9.886;2022-08-19T09:45:10;92721.75;;;18.31;72.16
59289;BME280;45056;47.602;9.886;2022-08-19T09:47:38;92723.75;;;18.31;72.43
59289;BME280;45056;47.602;9.886;2022-08-19T09:50:10;92723.00;;;18.30;72.48
59289;BME280;45056;47.602;9.886;2022-08-19T09:52:40;92726.50;;;18.31;72.39
59289;BME280;45056;47.602;9.886;2022-08-19T09:55:10;92732.75;;;18.31;72.40
59289;BME280;45056;47.602;9.886;2022-08-19T09:57:38;92726.00;;;18.33;72.24
59289;BME280;45056;47.602;9.886;2022-08-19T10:00:09;92730.00;;;18.31;72.29
59289;BME280;45056;47.602;9.886;2022-08-19T10:02:37;92728.00;;;18.32;72.42
59289;BME280;45056;47.602;9.886;2022-08-19T10:05:06;92740.53;;;18.33;72.39
59289;BME280;45056;47.602;9.886;2022-08-19T10:07:53;92740.53;;;18.33;72.58
59289;BME280;45056;47.602;9.886;2022-08-19T10:10:21;92737.00;;;18.33;72.61
59289;BME280;45056;47.602;9.886;2022-08-19T10:12:50;92742.03;;;18.34;72.59
59289;BME280;45056;47.602;9.886;2022-08-19T10:15:22;92735.03;;;18.33;72.54
59289;BME280;45056;47.602;9.886;2022-08-19T10:17:50;92740.03;;;18.35;72.70
59289;BME280;45056;47.602;9.886;2022-08-19T10:20:19;92740.78;;;18.35;72.53
59289;BME280;45056;47.602;9.886;2022-08-19T10:22:48;92747.03;;;18.36;72.83
59289;BME280;45056;47.602;9.886;2022-08-19T10:25:16;92749.78;;;18.36;72.86
59289;BME280;45056;47.602;9.886;2022-08-19T10:27:44;92747.28;;;18.38;72.68
59289;BME280;45056;47.602;9.886;2022-08-19T10:30:13;92751.28;;;18.37;72.84
59289;BME280;45056;47.602;9.886;2022-08-19T10:32:41;92760.81;;;18.36;72.76
59289;BME280;45056;47.602;9.886;2022-08-19T10:35:09;92757.31;;;18.35;72.83
59289;BME280;45056;47.602;9.886;2022-08-19T10:37:39;92753.78;;;18.35;72.54
59289;BME280;45056;47.602;9.886;2022-08-19T10:40:08;92752.28;;;18.34;72.86
59289;BME280;45056;47.602;9.886;2022-08-19T10:42:38;92755.28;;;18.36;72.77
59289;BME280;45056;47.602;9.886;2022-08-19T10:45:06;92752.53;;;18.36;72.85
59289;BME280;45056;47.602;9.886;2022-08-19T10:47:36;92755.81;;;18.34;72.74
59289;BME280;45056;47.602;9.886;2022-08-19T10:50:05;92753.78;;;18.35;72.83
59289;BME280;45056;47.602;9.886;2022-08-19T10:52:53;92754.56;;;18.35;72.62
59289;BME280;45056;47.602;9.886;2022-08-19T10:55:23;92754.81;;;18.37;72.57
59289;BME280;45056;47.602;9.886;2022-08-19T10:58:11;92752.78;;;18.38;72.47
59289;BME280;45056;47.602;9.886;2022-08-19T11:00:41;92754.81;;;18.37;72.79
59289;BME280;45056;47.602;9.886;2022-08-19T11:03:10;92755.56;;;18.38;72.80
59289;BME280;45056;47.602;9.886;2022-08-19T11:05:39;92742.53;;;18.38;73.01
59289;BME280;45056;47.602;9.886;2022-08-19T11:08:09;92743.78;;;18.37;72.84
59289;BME280;45056;47.602;9.886;2022-08-19T11:10:41;92745.28;;;18.38;72.91
59289;BME280;45056;47.602;9.886;2022-08-19T11:13:10;92745.28;;;18.38;72.70
59289;BME280;45056;47.602;9.886;2022-08-19T11:15:38;92746.81;;;18.39;72.73
59289;BME280;45056;47.602;9.886;2022-08-19T11:18:06;92742.31;;;18.42;72.72
59289;BME280;45056;47.602;9.886;2022-08-19T11:20:34;92746.56;;;18.43;72.78
59289;BME280;45056;47.602;9.886;2022-08-19T11:23:03;92745.56;;;18.46;72.86
59289;BME280;45056;47.602;9.886;2022-08-19T11:25:33;92740.31;;;18.48;72.92
59289;BME280;45056;47.602;9.886;2022-08-19T11:28:01;92751.34;;;18.48;72.96
59289;BME280;45056;47.602;9.886;2022-08-19T11:30:31;92741.81;;;18.49;73.03
59289;BME280;45056;47.602;9.886;2022-08-19T11:32:59;92744.56;;;18.49;73.21
59289;BME280;45056;47.602;9.886;2022-08-19T11:35:28;92744.56;;;18.49;73.02
59289;BME280;45056;47.602;9.886;2022-08-19T11:37:57;92746.81;;;18.51;72.89
59289;BME280;45056;47.602;9.886;2022-08-19T11:40:33;92746.06;;;18.50;73.08
59289;BME280;45056;47.602;9.886;2022-08-19T11:43:01;92744.81;;;18.51;72.84
59289;BME280;45056;47.602;9.886;2022-08-19T11:45:30;92746.56;;;18.49;72.99
59289;BME280;45056;47.602;9.886;2022-08-19T11:47:58;92750.09;;;18.49;72.86
59289;BME280;45056;47.602;9.886;2022-08-19T11:50:26;92747.81;;;18.48;72.86
59289;BME280;45056;47.602;9.886;2022-08-19T11:52:55;92747.56;;;18.45;72.90
59289;BME280;45056;47.602;9.886;2022-08-19T11:55:24;92750.31;;;18.45;72.75
59289;BME280;45056;47.602;9.886;2022-08-19T11:57:54;92750.81;;;18.44;72.80
59289;BME280;45056;47.602;9.886;2022-08-19T12:00:22;92746.06;;;18.44;72.83
59289;BME280;45056;47.602;9.886;2022-08-19T12:02:50;92743.06;;;18.42;72.74
59289;BME280;45056;47.602;9.886;2022-08-19T12:05:18;92746.31;;;18.41;73.12
59289;BME280;45056;47.602;9.886;2022-08-19T12:07:46;92753.06;;;18.40;73.11
59289;BME280;45056;47.602;9.886;2022-08-19T12:10:14;92752.31;;;18.39;73.13
59289;BME280;45056;47.602;9.886;2022-08-19T12:12:42;92750.81;;;18.38;73.46
59289;BME280;45056;47.602;9.886;2022-08-19T12:15:13;92754.31;;;18.39;73.28
59289;BME280;45056;47.602;9.886;2022-08-19T12:17:42;92758.56;;;18.40;73.20
59289;BME280;45056;47.602;9.886;2022-08-19T12:20:12;92758.84;;;18.42;73.01
59289;BME280;45056;47.602;9.886;2022-08-19T12:22:43;92759.09;;;18.44;73.09
59289;BME280;45056;47.602;9.886;2022-08-19T12:25:11;92761.84;;;18.44;73.04
59289;BME280;45056;47.602;9.886;2022-08-19T12:27:42;92761.34;;;18.45;72.82
59289;BME280;45056;47.602;9.886;2022-08-19T12:30:12;92755.09;;;18.45;73.08
59289;BME280;45056;47.602;9.886;2022-08-19T12:32:42;92770.09;;;18.44;73.37
59289;BME280;45056;47.602;9.886;2022-08-19T12:35:10;92763.84;;;18.43;73.29
59289;BME280;45056;47.602;9.886;2022-08-19T12:37:39;92763.09;;;18.43;73.31
59289;BME280;45056;47.602;9.886;2022-08-19T12:40:11;92757.34;;;18.41;73.51
59289;BME280;45056;47.602;9.886;2022-08-19T12:42:40;92766.34;;;18.41;73.77
59289;BME280;45056;47.602;9.886;2022-08-19T12:45:10;92764.84;;;18.40;73.79
59289;BME280;45056;47.602;9.886;2022-08-19T12:47:40;92763.31;;;18.39;73.67
59289;BME280;45056;47.602;9.886;2022-08-19T12:50:09;92768.06;;;18.39;73.72
59289;BME280;45056;47.602;9.886;2022-08-19T12:52:37;92763.56;;;18.36;73.84
59289;BME280;45056;47.602;9.886;2022-08-19T12:55:08;92771.81;;;18.36;73.78
59289;BME280;45056;47.602;9.886;2022-08-19T12:57:37;92771.56;;;18.34;74.15
59289;BME280;45056;47.602;9.886;2022-08-19T13:00:09;92770.06;;;18.33;74.03
59289;BME280;45056;47.602;9.886;2022-08-19T13:02:43;92769.81;;;18.30;74.15
59289;BME280;45056;47.602;9.886;2022-08-19T13:05:15;92783.81;;;18.33;73.98
59289;BME280;45056;47.602;9.886;2022-08-19T13:07:46;92776.81;;;18.31;73.99
59289;BME280;45056;47.602;9.886;2022-08-19T13:10:17;92780.81;;;18.30;74.01
59289;BME280;45056;47.602;9.886;2022-08-19T13:12:49;92780.81;;;18.30;73.96
59289;BME280;45056;47.602;9.886;2022-08-19T13:15:21;92784.81;;;18.29;74.30